Time;durP1;ratioP1;P1;durP2;ratioP2;P2;SDS_P1;SDS_P2;PMS_P1;PMS_P2;Temp;Humidity;BMP_temperature;BMP_pressure;BME280_temperature;BME280_humidity;BME280_pressure;Samples;Min_cycle;Max_cycle;Signal;HPM_P1;HPM_P2
2023/01/11 00:00:14;;;;;;;0.93;0.93;;;16.40;74.60;;;;;;4191348;28;20024;-60
2023/01/11 00:02:56;;;;;;;0.90;0.90;;;16.40;74.30;;;;;;4193059;28;20518;-60
2023/01/11 00:05:39;;;;;;;1.15;1.15;;;16.50;74.00;;;;;;4192868;28;20051;-60
2023/01/11 00:08:20;;;;;;;1.02;1.02;;;16.50;73.80;;;;;;4192820;28;20427;-60
2023/01/11 00:11:02;;;;;;;0.90;0.90;;;16.60;73.90;;;;;;4191106;28;20068;-60
2023/01/11 00:13:43;;;;;;;1.20;1.10;;;16.60;73.80;;;;;;4193128;28;20055;-60
2023/01/11 00:16:25;;;;;;;0.98;0.95;;;16.70;73.50;;;;;;4192762;28;20163;-60
2023/01/11 00:19:06;;;;;;;1.00;1.00;;;16.70;73.10;;;;;;4192507;28;20090;-60
2023/01/11 00:21:50;;;;;;;0.93;0.85;;;16.80;72.90;;;;;;4191727;28;20174;-60
2023/01/11 00:24:31;;;;;;;0.90;0.90;;;16.80;72.80;;;;;;4192876;28;20043;-60
2023/01/11 00:27:12;;;;;;;0.80;0.80;;;16.80;73.00;;;;;;4192660;28;20067;-60
2023/01/11 00:29:52;;;;;;;1.00;1.00;;;16.70;73.10;;;;;;4179380;28;20058;-60
2023/01/11 00:32:33;;;;;;;0.73;0.73;;;16.80;73.20;;;;;;4192634;28;20048;-60
2023/01/11 00:35:14;;;;;;;0.60;0.60;;;16.80;72.90;;;;;;4192401;28;20064;-60
2023/01/11 00:37:56;;;;;;;0.95;0.95;;;16.80;72.80;;;;;;4192634;28;20047;-60
2023/01/11 00:40:37;;;;;;;0.85;0.85;;;16.80;72.70;;;;;;4191365;28;20060;-60
2023/01/11 00:49:16;;;;;;;0.75;0.70;;;16.80;73.10;;;;;;4191628;28;20082;-60
2023/01/11 00:51:57;;;;;;;0.95;0.90;;;16.90;72.90;;;;;;4192359;28;20051;-60
2023/01/11 00:54:40;;;;;;;0.82;0.82;;;16.80;72.80;;;;;;4192756;28;20054;-60
2023/01/11 00:57:21;;;;;;;0.93;0.93;;;16.90;72.80;;;;;;4192396;28;20056;-60
2023/01/11 01:00:02;;;;;;;1.17;1.00;;;16.80;73.10;;;;;;4192082;28;20194;-60
2023/01/11 01:02:43;;;;;;;0.77;0.77;;;16.80;73.30;;;;;;4191797;28;20550;-61
2023/01/11 01:05:25;;;;;;;0.75;0.75;;;16.70;73.40;;;;;;4191782;28;20064;-61
2023/01/11 01:08:06;;;;;;;0.80;0.80;;;16.70;73.70;;;;;;4192407;28;20480;-60
2023/01/11 01:10:51;;;;;;;0.90;0.90;;;16.60;73.90;;;;;;4191460;28;20055;-60
2023/01/11 01:16:36;;;;;;;0.90;0.90;;;16.50;74.70;;;;;;4192216;28;20051;-60
2023/01/11 01:19:16;;;;;;;0.80;0.80;;;16.40;75.30;;;;;;4191607;28;20554;-60
2023/01/11 01:21:59;;;;;;;0.70;0.70;;;16.40;75.30;;;;;;4192200;28;20069;-60
2023/01/11 01:24:39;;;;;;;0.77;0.77;;;16.40;75.20;;;;;;4191242;28;20052;-60
2023/01/11 01:27:21;;;;;;;0.87;0.87;;;16.40;75.10;;;;;;4191837;28;20424;-60
2023/01/11 01:30:02;;;;;;;1.20;0.80;;;16.50;75.10;;;;;;4192008;28;20071;-60
2023/01/11 01:32:43;;;;;;;0.80;0.80;;;16.50;75.00;;;;;;4192133;28;20047;-61
2023/01/11 01:35:24;;;;;;;0.80;0.80;;;16.50;74.90;;;;;;4192161;28;20060;-60
2023/01/11 01:38:05;;;;;;;0.80;0.80;;;16.50;74.90;;;;;;4191794;28;20047;-60
2023/01/11 01:40:48;;;;;;;0.70;0.70;;;16.40;75.00;;;;;;4179144;28;20070;-60
2023/01/11 01:43:50;;;;;;;0.70;0.70;;;16.40;75.20;;;;;;4191672;28;20066;-60
2023/01/11 01:46:32;;;;;;;0.60;0.60;;;16.30;75.50;;;;;;4191643;28;20055;-60
2023/01/11 01:49:15;;;;;;;0.90;0.90;;;16.30;76.00;;;;;;4184138;28;20499;-60
2023/01/11 01:51:58;;;;;;;0.80;0.80;;;16.30;76.10;;;;;;4192102;28;20500;-60
2023/01/11 01:54:42;;;;;;;0.70;0.70;;;16.40;75.90;;;;;;4192003;28;20052;-60
2023/01/11 01:57:29;;;;;;;0.60;0.60;;;16.60;75.40;;;;;;4191710;28;20106;-60
2023/01/11 02:00:12;;;;;;;1.45;0.75;;;16.60;74.90;;;;;;4188182;28;20101;-60
2023/01/11 02:02:54;;;;;;;0.82;0.80;;;16.60;74.70;;;;;;4191740;28;20051;-60
2023/01/11 02:05:35;;;;;;;0.70;0.70;;;16.70;74.70;;;;;;4191670;28;20149;-60
2023/01/11 02:08:22;;;;;;;0.70;0.70;;;16.80;74.40;;;;;;4190549;28;20056;-61
2023/01/11 02:11:28;;;;;;;0.75;0.75;;;16.80;74.10;;;;;;4191711;28;20055;-60
2023/01/11 02:14:11;;;;;;;0.60;0.60;;;16.90;74.00;;;;;;4189937;28;20114;-60
2023/01/11 02:16:53;;;;;;;0.60;0.60;;;16.90;73.80;;;;;;4188579;28;20153;-60
2023/01/11 02:19:51;;;;;;;0.50;0.50;;;16.90;73.90;;;;;;4193596;28;20153;-60
2023/01/11 02:22:57;;;;;;;0.65;0.65;;;16.80;74.00;;;;;;4191307;28;20048;-60
2023/01/11 02:26:05;;;;;;;2.05;0.60;;;16.90;74.20;;;;;;4178101;28;20106;-60
2023/01/11 02:28:53;;;;;;;0.50;0.50;;;16.90;74.00;;;;;;4202371;27;20082;-60
2023/01/11 02:31:41;;;;;;;0.35;0.35;;;16.90;73.90;;;;;;4208909;27;20062;-60
2023/01/11 02:34:36;;;;;;;0.52;0.52;;;16.90;73.90;;;;;;4210237;27;20089;-60
2023/01/11 02:37:28;;;;;;;0.30;0.30;;;16.80;74.10;;;;;;4208386;27;20185;-61
2023/01/11 02:40:17;;;;;;;0.40;0.40;;;16.80;74.40;;;;;;4187563;28;20048;-60
2023/01/11 02:46:10;;;;;;;0.43;0.43;;;16.70;75.00;;;;;;4200254;28;20087;-60
2023/01/11 02:48:59;;;;;;;0.40;0.40;;;16.80;75.10;;;;;;4193087;28;20084;-60
2023/01/11 02:51:45;;;;;;;0.57;0.57;;;16.80;74.80;;;;;;4158537;28;20056;-61
2023/01/11 02:54:35;;;;;;;0.47;0.47;;;16.90;74.60;;;;;;4192420;28;20117;-61
2023/01/11 02:57:17;;;;;;;0.50;0.50;;;16.90;74.40;;;;;;4148376;28;20072;-61
2023/01/11 03:00:04;;;;;;;0.40;0.40;;;16.90;74.30;;;;;;4190504;28;20181;-61
2023/01/11 03:02:46;;;;;;;0.73;0.73;;;16.80;74.50;;;;;;4195829;28;20043;-61
2023/01/11 03:05:27;;;;;;;0.60;0.60;;;16.80;74.70;;;;;;4192206;28;20136;-61
2023/01/11 03:08:24;;;;;;;0.65;0.65;;;16.90;74.80;;;;;;4176904;28;20056;-61
2023/01/11 03:11:08;;;;;;;0.60;0.60;;;16.90;74.40;;;;;;4173388;28;20105;-61
2023/01/11 03:14:02;;;;;;;0.43;0.43;;;17.00;74.00;;;;;;4184750;28;20051;-62
2023/01/11 03:16:51;;;;;;;0.50;0.50;;;17.10;73.90;;;;;;4178800;28;20182;-61
2023/01/11 03:19:40;;;;;;;2.38;0.40;;;17.00;74.00;;;;;;4151328;28;20519;-61
2023/01/11 03:22:28;;;;;;;0.85;0.40;;;17.10;73.90;;;;;;4183750;28;20060;-61
2023/01/11 03:25:17;;;;;;;0.75;0.40;;;17.10;73.90;;;;;;4191397;28;20416;-61
2023/01/11 03:28:06;;;;;;;0.32;0.32;;;17.10;74.00;;;;;;4193437;28;20530;-61
2023/01/11 03:30:51;;;;;;;0.30;0.30;;;17.10;74.00;;;;;;4193190;28;20055;-62
2023/01/11 03:33:43;;;;;;;0.35;0.35;;;17.10;73.90;;;;;;4174781;28;20056;-62
2023/01/11 03:36:31;;;;;;;0.50;0.30;;;17.20;73.80;;;;;;4190276;28;20510;-61
2023/01/11 03:39:23;;;;;;;0.43;0.20;;;17.10;73.80;;;;;;4191467;28;20498;-63
2023/01/11 03:42:10;;;;;;;0.77;0.40;;;17.10;73.90;;;;;;4189881;28;20048;-61
2023/01/11 03:44:59;;;;;;;0.30;0.30;;;17.20;73.80;;;;;;4191300;28;20050;-61
2023/01/11 03:47:40;;;;;;;0.15;0.15;;;17.20;73.80;;;;;;4191835;28;20056;-62
2023/01/11 03:50:27;;;;;;;0.20;0.17;;;17.20;73.70;;;;;;4192371;28;20059;-62
2023/01/11 03:53:11;;;;;;;0.20;0.20;;;17.10;74.00;;;;;;4191878;28;20209;-61
2023/01/11 03:55:55;;;;;;;0.85;0.20;;;17.10;74.30;;;;;;4192662;28;20060;-60
2023/01/11 03:58:36;;;;;;;0.20;0.20;;;17.10;74.60;;;;;;4192952;28;20130;-61
2023/01/11 04:01:18;;;;;;;0.22;0.20;;;17.10;74.50;;;;;;4191074;28;20534;-62
2023/01/11 04:04:00;;;;;;;0.20;0.20;;;17.10;74.20;;;;;;4174893;28;20052;-60
2023/01/11 04:06:40;;;;;;;0.22;0.22;;;17.20;74.10;;;;;;4175195;28;20051;-59
2023/01/11 04:09:23;;;;;;;0.17;0.17;;;17.20;74.20;;;;;;4185110;28;20589;-60
2023/01/11 04:12:06;;;;;;;0.20;0.20;;;17.10;74.30;;;;;;4177989;28;20125;-59
2023/01/11 04:14:46;;;;;;;;;;;17.10;74.60;;;;;;4185297;27;20059;-60
2023/01/11 04:17:27;;;;;;;0.15;0.13;;;17.00;74.80;;;;;;4192340;27;20008;-60
2023/01/11 04:20:10;;;;;;;0.70;0.20;;;17.10;74.90;;;;;;4180532;28;20629;-59
2023/01/11 04:22:51;;;;;;;0.22;0.22;;;17.10;74.70;;;;;;4168801;28;20102;-60
2023/01/11 04:25:37;;;;;;;0.52;0.28;;;17.20;74.60;;;;;;4201834;27;20055;-60
2023/01/11 04:28:20;;;;;;;0.85;0.50;;;17.10;74.60;;;;;;4192538;27;20095;-60
2023/01/11 04:31:01;;;;;;;1.75;0.50;;;17.10;74.80;;;;;;4175051;28;20125;-60
2023/01/11 04:33:43;;;;;;;4.13;0.80;;;17.00;75.00;;;;;;4191051;28;20048;-60
2023/01/11 04:36:24;;;;;;;1.20;0.77;;;16.90;75.30;;;;;;4176076;28;20060;-60
2023/01/11 04:39:09;;;;;;;1.58;0.85;;;16.90;75.90;;;;;;4174648;28;20130;-61
2023/01/11 04:44:50;;;;;;;3.00;1.30;;;16.90;76.80;;;;;;4181285;28;20071;-60
2023/01/11 04:47:31;;;;;;;3.33;1.20;;;17.00;75.80;;;;;;4203430;27;20125;-60
2023/01/11 04:50:12;;;;;;;2.10;0.88;;;17.00;75.80;;;;;;4209414;27;20059;-60
2023/01/11 04:52:53;;;;;;;1.13;0.80;;;16.90;75.80;;;;;;4209500;27;20051;-60
2023/01/11 04:55:34;;;;;;;3.25;1.20;;;16.90;75.90;;;;;;4197497;27;20101;-64
2023/01/11 04:58:16;;;;;;;1.65;0.82;;;16.80;76.20;;;;;;4184702;28;20051;-60
2023/01/11 05:00:57;;;;;;;2.35;1.00;;;16.80;76.30;;;;;;4190252;28;20055;-60
2023/01/11 05:03:42;;;;;;;3.58;0.90;;;16.90;76.30;;;;;;4208947;28;20059;-60
2023/01/11 05:06:24;;;;;;;2.67;0.90;;;16.90;76.20;;;;;;4160046;28;20068;-60
2023/01/11 05:09:12;;;;;;;3.75;1.00;;;16.90;76.30;;;;;;4178138;28;20470;-61
2023/01/11 05:11:55;;;;;;;1.73;0.77;;;16.90;76.10;;;;;;4174703;28;20145;-61
2023/01/11 05:14:41;;;;;;;2.83;1.00;;;17.00;75.90;;;;;;4177712;27;20055;-60
2023/01/11 05:17:28;;;;;;;2.25;1.00;;;17.00;75.80;;;;;;4207000;27;20185;-60
2023/01/11 05:20:11;;;;;;;3.05;1.10;;;17.00;75.80;;;;;;4206315;27;20125;-62
2023/01/11 05:22:56;;;;;;;2.90;0.80;;;16.90;75.90;;;;;;4207919;27;20136;-61
2023/01/11 05:25:38;;;;;;;4.07;0.85;;;16.90;76.00;;;;;;4206598;27;20051;-61
2023/01/11 05:28:19;;;;;;;4.53;1.05;;;16.80;76.50;;;;;;4175166;28;20134;-60
2023/01/11 05:31:06;;;;;;;3.45;1.23;;;16.80;76.70;;;;;;4166376;28;20056;-61
2023/01/11 05:33:47;;;;;;;1.70;0.93;;;16.80;76.70;;;;;;4173996;28;20424;-60
2023/01/11 05:36:32;;;;;;;2.85;0.90;;;16.80;76.80;;;;;;4175049;28;20195;-60
2023/01/11 05:39:14;;;;;;;5.93;1.20;;;16.70;77.00;;;;;;4182424;28;20376;-60
2023/01/11 05:41:56;;;;;;;4.15;1.55;;;16.70;77.20;;;;;;4191044;28;20055;-60
2023/01/11 05:47:39;;;;;;;2.90;1.25;;;16.80;77.00;;;;;;4182618;28;20052;-61
2023/01/11 05:50:21;;;;;;;4.70;1.92;;;16.90;76.80;;;;;;4185596;28;20063;-61
2023/01/11 05:53:02;;;;;;;8.23;1.70;;;16.90;76.60;;;;;;4191095;28;20051;-60
2023/01/11 05:55:52;;;;;;;4.28;1.80;;;16.90;76.70;;;;;;4190373;28;20052;-60
2023/01/11 05:58:36;;;;;;;7.85;2.03;;;16.80;76.70;;;;;;4192085;28;20098;-60
2023/01/11 06:01:17;;;;;;;3.22;1.35;;;16.80;77.00;;;;;;4193944;28;20063;-60
2023/01/11 06:03:59;;;;;;;;;;;16.70;77.40;;;;;;4185078;28;20060;-60
2023/01/11 06:06:41;;;;;;;3.47;1.30;;;16.70;77.80;;;;;;4167725;28;19928;-61
2023/01/11 06:09:22;;;;;;;5.28;1.55;;;16.70;77.60;;;;;;4193087;28;20505;-61
2023/01/11 06:12:03;;;;;;;5.40;1.50;;;16.80;77.50;;;;;;4195151;28;20055;-63
2023/01/11 06:14:44;;;;;;;4.10;1.40;;;16.80;78.30;;;;;;4196620;28;20171;-61
2023/01/11 06:17:25;;;;;;;6.38;1.58;;;16.80;78.10;;;;;;4178556;28;20063;-61
2023/01/11 06:20:09;;;;;;;7.32;1.77;;;16.80;77.30;;;;;;4178546;28;20063;-61
2023/01/11 06:22:51;;;;;;;11.90;3.20;;;16.70;77.50;;;;;;4178309;28;20102;-61
2023/01/11 06:25:32;;;;;;;9.43;2.03;;;16.70;77.80;;;;;;4194698;27;20059;-61
2023/01/11 06:28:13;;;;;;;11.80;2.42;;;16.70;77.80;;;;;;4211498;27;20595;-63
2023/01/11 06:30:54;;;;;;;9.10;2.63;;;16.80;77.60;;;;;;4211291;27;20069;-62
2023/01/11 06:33:36;;;;;;;15.95;2.72;;;16.80;77.40;;;;;;4203303;28;20121;-62
2023/01/11 06:36:18;;;;;;;15.98;2.65;;;16.80;77.30;;;;;;4177521;28;20059;-61
2023/01/11 06:38:59;;;;;;;9.13;2.35;;;16.80;77.30;;;;;;4178111;28;20052;-61
2023/01/11 06:41:40;;;;;;;9.82;2.20;;;16.80;77.50;;;;;;4161087;28;20111;-61
2023/01/11 06:44:21;;;;;;;9.52;2.60;;;16.70;77.70;;;;;;4183997;27;20051;-61
2023/01/11 06:47:02;;;;;;;9.30;2.15;;;16.70;78.10;;;;;;4211192;27;20501;-61
2023/01/11 06:49:43;;;;;;;10.07;2.08;;;16.70;78.00;;;;;;4211145;27;20050;-61
2023/01/11 06:52:25;;;;;;;14.02;2.47;;;16.80;78.60;;;;;;4210680;27;20124;-61
2023/01/11 06:55:07;;;;;;;10.02;2.55;;;16.80;77.60;;;;;;4200614;27;20121;-60
2023/01/11 06:57:48;;;;;;;;;;;16.80;77.60;;;;;;4211178;27;20059;-61
2023/01/11 07:00:28;;;;;;;13.30;1.90;;;16.80;77.60;;;;;;4233717;27;19947;-62
2023/01/11 07:03:11;;;;;;;10.77;2.67;;;16.70;77.80;;;;;;4205166;27;20105;-61
2023/01/11 07:05:53;;;;;;;11.23;2.42;;;16.70;78.30;;;;;;4189103;28;20193;-61
2023/01/11 07:08:36;;;;;;;11.30;2.75;;;16.70;78.70;;;;;;4193928;28;20101;-61
2023/01/11 07:11:18;;;;;;;8.65;2.53;;;16.70;79.30;;;;;;4192811;28;20083;-61
2023/01/11 07:13:59;;;;;;;10.05;2.53;;;16.80;78.50;;;;;;4190752;28;20552;-61
2023/01/11 07:16:40;;;;;;;13.98;2.90;;;16.80;78.20;;;;;;4192692;28;20047;-61
2023/01/11 07:19:21;;;;;;;9.60;2.53;;;16.80;78.00;;;;;;4193018;28;20051;-61
2023/01/11 07:22:02;;;;;;;11.10;2.65;;;16.80;78.10;;;;;;4193661;28;20070;-60
2023/01/11 07:24:45;;;;;;;9.77;2.15;;;16.70;78.10;;;;;;4193287;28;20102;-62
2023/01/11 07:27:28;;;;;;;14.82;2.90;;;16.70;78.30;;;;;;4193026;28;20055;-61
2023/01/11 07:30:10;;;;;;;7.63;2.17;;;16.70;78.50;;;;;;4193554;28;20419;-60
2023/01/11 07:32:51;;;;;;;7.10;2.30;;;16.70;78.60;;;;;;4193386;28;20054;-61
2023/01/11 07:35:32;;;;;;;10.20;2.00;;;16.70;78.60;;;;;;4193711;28;20055;-61
2023/01/11 07:38:13;;;;;;;9.98;1.70;;;16.80;78.40;;;;;;4193599;28;20391;-61
2023/01/11 07:40:55;;;;;;;10.55;2.33;;;16.80;78.00;;;;;;4177030;28;20060;-60
2023/01/11 07:43:35;;;;;;;12.15;2.80;;;16.90;77.80;;;;;;4177312;28;20098;-61
2023/01/11 07:46:16;;;;;;;9.43;2.25;;;16.80;77.60;;;;;;4178202;28;20056;-59
2023/01/11 07:48:57;;;;;;;8.77;2.22;;;16.80;77.80;;;;;;4192576;28;20052;-59
2023/01/11 07:51:38;;;;;;;8.38;2.20;;;16.80;78.00;;;;;;4191544;28;20063;-59
2023/01/11 07:54:20;;;;;;;8.43;1.92;;;16.70;79.00;;;;;;4193298;28;20056;-59
2023/01/11 07:57:02;;;;;;;11.30;2.58;;;16.70;78.40;;;;;;4193437;28;20479;-59
2023/01/11 07:59:42;;;;;;;11.75;1.92;;;16.60;78.60;;;;;;4193247;28;20059;-59
2023/01/11 08:02:23;;;;;;;9.02;1.90;;;16.50;78.90;;;;;;4192491;28;20081;-59
2023/01/11 08:05:05;;;;;;;7.75;2.15;;;16.50;79.30;;;;;;4192796;28;20403;-59
2023/01/11 08:07:46;;;;;;;8.95;2.92;;;16.60;79.30;;;;;;4192988;28;20647;-58
2023/01/11 08:10:27;;;;;;;8.97;1.90;;;16.60;79.00;;;;;;4192999;28;20529;-59
2023/01/11 08:16:10;;;;;;;11.40;2.22;;;16.70;78.70;;;;;;4192534;28;20057;-59
2023/01/11 08:18:51;;;;;;;17.25;2.33;;;16.70;78.70;;;;;;4192867;28;20122;-59
2023/01/11 08:21:32;;;;;;;9.27;2.33;;;16.70;79.50;;;;;;4192027;28;20049;-59
2023/01/11 08:24:13;;;;;;;12.93;2.70;;;16.70;79.70;;;;;;4192664;28;20060;-59
2023/01/11 08:26:54;;;;;;;10.20;2.53;;;16.80;79.90;;;;;;4192700;28;20056;-59
2023/01/11 08:29:36;;;;;;;8.30;2.33;;;16.80;80.10;;;;;;4192584;28;20076;-59
2023/01/11 08:32:17;;;;;;;9.35;2.85;;;16.80;80.20;;;;;;4192165;28;20058;-58
2023/01/11 08:34:58;;;;;;;5.32;1.90;;;16.90;79.80;;;;;;4192521;28;20093;-57
2023/01/11 08:37:39;;;;;;;13.25;3.03;;;16.90;79.30;;;;;;4192628;28;20191;-57
2023/01/11 08:40:20;;;;;;;8.32;1.60;;;16.90;79.00;;;;;;4192849;28;20055;-57
2023/01/11 08:43:04;;;;;;;10.30;2.28;;;16.80;78.70;;;;;;4192489;28;20115;-58
2023/01/11 08:45:46;;;;;;;8.93;2.00;;;16.80;78.70;;;;;;4191520;28;20507;-57
2023/01/11 08:48:27;;;;;;;8.70;2.40;;;16.70;78.50;;;;;;4192272;28;20051;-58
2023/01/11 08:51:09;;;;;;;7.43;1.98;;;16.70;78.40;;;;;;4178067;28;20070;-57
2023/01/11 08:53:51;;;;;;;12.15;2.10;;;16.60;78.40;;;;;;4192623;28;20051;-58
2023/01/11 08:56:32;;;;;;;9.52;2.17;;;16.60;78.40;;;;;;4191599;28;20051;-58
2023/01/11 08:59:13;;;;;;;8.10;1.92;;;16.60;78.50;;;;;;4192091;28;20560;-58
2023/01/11 09:01:56;;;;;;;10.38;1.90;;;16.70;78.30;;;;;;4192379;28;20038;-58
2023/01/11 09:04:37;;;;;;;6.50;1.27;;;16.70;78.10;;;;;;4192552;28;20060;-58
2023/01/11 09:07:18;;;;;;;10.98;1.55;;;16.80;77.50;;;;;;4192447;28;20106;-56
2023/01/11 09:09:59;;;;;;;5.68;1.90;;;16.80;77.20;;;;;;4175737;28;20066;-59
2023/01/11 09:12:40;;;;;;;7.15;1.80;;;16.80;76.80;;;;;;4175582;28;20056;-59
2023/01/11 09:15:21;;;;;;;13.90;1.95;;;16.80;76.80;;;;;;4176459;28;20056;-62
2023/01/11 09:18:04;;;;;;;11.10;2.53;;;16.70;77.10;;;;;;4191279;28;20040;-59
2023/01/11 09:20:44;;;;;;;6.15;1.40;;;16.70;77.10;;;;;;4192203;28;20380;-58
2023/01/11 09:23:25;;;;;;;9.40;2.00;;;16.60;77.10;;;;;;4192397;28;20061;-58
2023/01/11 09:26:06;;;;;;;7.20;1.60;;;16.60;77.20;;;;;;4192446;28;20051;-59
2023/01/11 09:28:47;;;;;;;8.48;1.90;;;16.50;77.20;;;;;;4192120;28;20044;-60
2023/01/11 09:31:28;;;;;;;7.35;2.20;;;16.50;77.30;;;;;;4191392;28;20047;-59
2023/01/11 09:34:11;;;;;;;6.97;1.90;;;16.40;77.40;;;;;;4194059;28;20182;-59
2023/01/11 09:36:53;;;;;;;7.63;1.67;;;16.30;77.70;;;;;;4195501;28;20047;-59
2023/01/11 09:39:34;;;;;;;8.52;1.42;;;16.30;78.10;;;;;;4195683;28;20056;-60
2023/01/11 09:42:30;;;;;;;7.97;1.70;;;16.20;78.60;;;;;;4195376;28;20246;-59
2023/01/11 09:45:14;;;;;;;6.40;1.75;;;16.20;79.20;;;;;;4195082;28;20051;-59
2023/01/11 09:48:02;;;;;;;6.53;1.80;;;16.20;80.50;;;;;;4195394;28;20093;-59
2023/01/11 09:50:47;;;;;;;7.13;1.23;;;16.20;80.70;;;;;;4195749;28;20093;-59
2023/01/11 09:53:34;;;;;;;11.93;2.25;;;16.30;80.20;;;;;;4207310;27;20043;-59
2023/01/11 09:56:23;;;;;;;4.70;1.50;;;16.30;79.60;;;;;;4197495;27;20050;-59
2023/01/11 09:59:10;;;;;;;13.02;2.63;;;16.40;79.10;;;;;;4212174;27;20047;-59
2023/01/11 10:02:04;;;;;;;9.43;1.90;;;16.40;78.70;;;;;;4192399;28;20051;-59
2023/01/11 10:04:59;;;;;;;6.90;1.73;;;16.30;78.30;;;;;;4177319;28;20056;-59
2023/01/11 10:07:58;;;;;;;7.20;1.80;;;16.30;78.00;;;;;;4185777;27;20182;-59
2023/01/11 10:11:08;;;;;;;10.10;2.55;;;16.30;78.00;;;;;;4209958;27;20201;-62
2023/01/11 10:14:25;;;;;;;7.75;2.13;;;16.20;78.00;;;;;;4178004;28;20625;-61
2023/01/11 10:17:39;;;;;;;7.32;1.90;;;16.10;78.20;;;;;;4183842;28;20407;-61
2023/01/11 10:20:46;;;;;;;7.97;1.88;;;16.10;78.40;;;;;;4194280;28;20074;-62
2023/01/11 10:23:36;;;;;;;6.70;2.08;;;16.00;78.60;;;;;;4208397;27;20047;-61
2023/01/11 10:26:27;;;;;;;6.20;1.60;;;16.00;78.70;;;;;;4211223;27;21885;-62
2023/01/11 10:29:44;;;;;;;;;;;15.90;78.70;;;;;;4189390;28;20055;-61
2023/01/11 10:32:44;;;;;;;6.07;1.48;;;15.80;78.70;;;;;;4179566;28;19927;-62
2023/01/11 10:35:44;;;;;;;8.68;1.75;;;15.80;78.80;;;;;;4194176;28;20431;-61
2023/01/11 10:38:56;;;;;;;5.72;1.40;;;15.80;79.20;;;;;;4197247;27;20052;-62
2023/01/11 10:41:51;;;;;;;6.05;0.90;;;15.80;79.00;;;;;;4204474;27;20073;-61
2023/01/11 10:44:36;;;;;;;9.05;1.90;;;15.90;78.70;;;;;;4210271;27;20090;-62
2023/01/11 10:47:22;;;;;;;8.68;1.83;;;16.00;78.30;;;;;;4204152;27;20659;-60
2023/01/11 10:50:07;;;;;;;10.07;1.48;;;16.10;78.10;;;;;;4195373;27;20040;-61
2023/01/11 10:52:56;;;;;;;10.50;2.05;;;16.20;77.90;;;;;;4210949;27;20046;-61
2023/01/11 10:55:46;;;;;;;5.50;1.77;;;16.20;77.70;;;;;;4209857;27;20059;-61
2023/01/11 10:58:53;;;;;;;5.80;1.95;;;16.20;77.50;;;;;;4194707;28;20048;-61
2023/01/11 11:01:47;;;;;;;13.38;2.30;;;16.30;77.50;;;;;;4195707;27;20052;-61
2023/01/11 11:04:45;;;;;;;5.15;1.63;;;16.30;77.00;;;;;;4193854;28;20098;-60
2023/01/11 11:07:33;;;;;;;4.90;1.70;;;16.30;76.70;;;;;;4193767;28;20081;-61
2023/01/11 11:10:20;;;;;;;8.77;1.55;;;16.30;76.50;;;;;;4195492;27;20558;-61
2023/01/11 11:13:12;;;;;;;7.90;1.25;;;16.30;76.50;;;;;;4205109;27;20062;-61
2023/01/11 11:16:00;;;;;;;4.82;1.80;;;16.30;76.60;;;;;;4210192;27;20059;-60
2023/01/11 11:18:42;;;;;;;6.43;1.52;;;16.30;76.60;;;;;;4210514;27;20055;-62
2023/01/11 11:21:27;;;;;;;7.05;2.35;;;16.20;76.80;;;;;;4196423;27;20056;-61
2023/01/11 11:24:17;;;;;;;8.13;1.70;;;16.10;76.90;;;;;;4193417;28;20511;-62
2023/01/11 11:27:02;;;;;;;13.35;2.95;;;16.10;77.20;;;;;;4193531;28;20179;-62
2023/01/11 11:29:50;;;;;;;7.43;2.00;;;16.00;77.60;;;;;;4193258;28;20114;-62
2023/01/11 11:32:35;;;;;;;15.38;3.28;;;16.00;78.20;;;;;;4177197;28;20094;-62
2023/01/11 11:35:35;;;;;;;4.85;1.55;;;15.90;78.40;;;;;;4175873;28;20121;-61
2023/01/11 11:38:22;;;;;;;5.57;3.08;;;15.90;78.70;;;;;;4181443;28;20131;-63
2023/01/11 11:41:09;;;;;;;6.75;1.65;;;15.80;79.20;;;;;;4192812;28;20419;-61
2023/01/11 11:43:50;;;;;;;12.82;2.67;;;15.80;79.40;;;;;;4176744;28;20141;-62
2023/01/11 11:46:32;;;;;;;7.88;2.33;;;15.80;79.60;;;;;;4184131;28;20400;-63
2023/01/11 11:49:16;;;;;;;10.93;2.25;;;15.70;79.80;;;;;;4193470;28;20679;-62
2023/01/11 11:51:59;;;;;;;7.07;1.83;;;15.70;79.80;;;;;;4193628;28;20093;-62
2023/01/11 11:54:44;;;;;;;14.10;3.22;;;15.60;79.50;;;;;;4193585;28;20055;-62
2023/01/11 11:57:27;;;;;;;10.60;2.03;;;15.60;79.00;;;;;;4192581;28;20058;-62
2023/01/11 12:00:26;;;;;;;9.80;1.67;;;15.60;79.00;;;;;;4193537;28;20399;-62
2023/01/11 12:03:15;;;;;;;5.18;1.30;;;15.50;78.90;;;;;;4192802;28;20059;-61
2023/01/11 12:05:59;;;;;;;10.05;1.85;;;15.50;79.20;;;;;;4192485;28;20059;-62
2023/01/11 12:08:43;;;;;;;8.73;2.20;;;15.50;79.30;;;;;;4192262;28;20063;-62
2023/01/11 12:11:31;;;;;;;9.15;2.08;;;15.50;79.20;;;;;;4192502;28;20457;-62
2023/01/11 12:14:23;;;;;;;9.43;2.70;;;15.40;79.90;;;;;;4183476;28;20059;-62
2023/01/11 12:17:22;;;;;;;10.85;2.42;;;15.40;79.10;;;;;;4184164;28;20056;-61
2023/01/11 12:20:28;;;;;;;11.55;2.28;;;15.40;79.10;;;;;;4192886;28;20051;-62
2023/01/11 12:23:15;;;;;;;13.80;2.65;;;15.30;79.10;;;;;;4191612;28;20056;-61
2023/01/11 12:26:12;;;;;;;11.50;2.35;;;15.30;79.00;;;;;;4193165;28;20059;-63
2023/01/11 12:29:23;;;;;;;9.77;1.85;;;15.30;78.80;;;;;;4192718;28;20059;-61
2023/01/11 12:32:30;;;;;;;5.13;2.10;;;15.20;78.80;;;;;;4192380;28;20500;-61
2023/01/11 12:35:33;;;;;;;4.93;1.10;;;15.20;78.90;;;;;;4185815;28;20129;-61
2023/01/11 12:38:26;;;;;;;6.50;1.60;;;15.20;79.00;;;;;;4192571;28;20059;-62
2023/01/11 12:41:43;;;;;;;14.23;2.03;;;15.20;78.70;;;;;;4190710;28;20059;-61
2023/01/11 12:44:42;;;;;;;6.90;1.13;;;15.30;78.40;;;;;;4192024;28;20486;-62
2023/01/11 12:47:53;;;;;;;6.03;1.88;;;15.30;77.80;;;;;;4192138;28;20183;-62
2023/01/11 12:50:43;;;;;;;9.05;2.15;;;15.30;77.50;;;;;;4191494;28;20070;-62
2023/01/11 12:53:51;;;;;;;14.38;2.70;;;15.40;77.40;;;;;;4192526;28;20067;-62
2023/01/11 12:56:42;;;;;;;12.00;1.90;;;15.40;77.20;;;;;;4192121;28;20074;-62
2023/01/11 12:59:39;;;;;;;14.43;2.53;;;15.40;77.10;;;;;;4192133;28;20059;-61
2023/01/11 13:02:34;;;;;;;8.32;1.50;;;15.40;77.00;;;;;;4188227;28;20509;-62
2023/01/11 13:05:24;;;;;;;7.68;1.80;;;15.30;77.30;;;;;;4192367;28;20063;-63
2023/01/11 13:08:15;;;;;;;8.80;1.60;;;15.30;77.40;;;;;;4191723;28;20060;-62
2023/01/11 13:11:07;;;;;;;7.15;1.48;;;15.40;77.00;;;;;;4192146;28;20431;-60
2023/01/11 13:13:56;;;;;;;10.15;2.13;;;15.50;76.90;;;;;;4176793;28;20051;-61
2023/01/11 13:16:44;;;;;;;11.85;2.53;;;15.50;76.50;;;;;;4192359;28;20093;-62
2023/01/11 13:19:36;;;;;;;9.88;2.40;;;15.50;76.20;;;;;;4191039;28;20574;-61
2023/01/11 13:22:20;;;;;;;15.95;3.58;;;15.50;76.10;;;;;;4189654;28;20544;-60
2023/01/11 13:25:13;;;;;;;9.45;2.22;;;15.50;76.00;;;;;;4191248;28;20093;-61
2023/01/11 13:27:56;;;;;;;13.63;2.10;;;15.50;75.70;;;;;;4191671;28;20056;-61
2023/01/11 13:30:38;;;;;;;14.60;3.53;;;15.50;75.60;;;;;;4182072;28;20043;-60
2023/01/11 13:33:22;;;;;;;3.00;1.15;;;15.60;75.60;;;;;;4192312;28;20059;-61
2023/01/11 13:36:07;;;;;;;9.85;2.42;;;15.60;75.50;;;;;;4176075;28;20258;-61
2023/01/11 13:39:10;;;;;;;11.95;3.38;;;15.60;75.20;;;;;;4172655;28;20549;-61
2023/01/11 13:41:56;;;;;;;7.00;2.17;;;15.60;75.00;;;;;;4192035;28;20059;-61
2023/01/11 13:44:41;;;;;;;7.53;1.75;;;15.70;75.10;;;;;;4192143;28;20896;-61
2023/01/11 13:47:29;;;;;;;15.82;2.80;;;15.70;74.90;;;;;;4192250;28;20518;-61
2023/01/11 13:50:16;;;;;;;13.27;2.38;;;15.80;74.40;;;;;;4191858;28;20167;-61
2023/01/11 13:53:02;;;;;;;12.00;2.58;;;15.90;74.20;;;;;;4192176;28;20182;-61
2023/01/11 13:55:54;;;;;;;6.88;1.20;;;16.00;74.00;;;;;;4191569;28;20051;-61
2023/01/11 13:58:43;;;;;;;21.20;2.45;;;16.00;74.00;;;;;;4191151;28;20490;-61
2023/01/11 14:01:35;;;;;;;8.43;2.35;;;16.00;73.80;;;;;;4192125;28;20094;-60
2023/01/11 14:04:21;;;;;;;14.65;1.98;;;16.00;73.50;;;;;;4191941;28;20173;-61
2023/01/11 14:07:15;;;;;;;9.55;1.42;;;16.00;73.40;;;;;;4189313;28;20052;-61
2023/01/11 14:10:16;;;;;;;14.60;2.17;;;16.00;73.10;;;;;;4191226;28;20048;-61
2023/01/11 14:16:33;;;;;;;17.08;2.95;;;16.10;72.10;;;;;;4192109;28;20102;-61
2023/01/11 14:19:22;;;;;;;9.73;2.72;;;16.20;71.40;;;;;;4192655;28;20063;-60
2023/01/11 14:22:12;;;;;;;12.43;2.05;;;16.20;71.30;;;;;;4195093;28;20403;-61
2023/01/11 14:25:00;;;;;;;12.87;2.60;;;16.20;71.50;;;;;;4195282;28;20197;-61
2023/01/11 14:28:10;;;;;;;3.45;1.50;;;16.20;71.50;;;;;;4193363;28;20101;-61
2023/01/11 14:31:18;;;;;;;8.48;2.00;;;16.10;71.50;;;;;;4194248;28;20051;-62
2023/01/11 14:34:29;;;;;;;9.60;2.47;;;16.10;71.90;;;;;;4194650;28;20059;-61
2023/01/11 14:37:43;;;;;;;11.18;3.10;;;16.00;71.90;;;;;;4194187;28;20179;-61
2023/01/11 14:40:47;;;;;;;14.68;2.78;;;15.90;72.20;;;;;;4194297;28;20055;-60
2023/01/11 14:43:49;;;;;;;11.45;2.22;;;15.90;72.60;;;;;;4194524;28;20121;-60
2023/01/11 14:46:56;;;;;;;10.45;2.30;;;15.80;73.00;;;;;;4194198;28;20511;-60
2023/01/11 14:49:54;;;;;;;10.48;1.90;;;15.70;73.20;;;;;;4186807;28;20109;-61